Time;durP1;ratioP1;P1;durP2;ratioP2;P2;SDS_P1;SDS_P2;PMS_P1;PMS_P2;Temp;Humidity;BMP_temperature;BMP_pressure;BME280_temperature;BME280_humidity;BME280_pressure;Samples;Min_cycle;Max_cycle;Signal;HPM_P1;HPM_P2
2021/06/12 00:00:31;;;;;;;5.78;5.20;;;19.70;99.90;;;;;;5131205;27;20461;-44
2021/06/12 00:02:57;;;;;;;6.90;6.20;;;19.70;99.90;;;;;;5119748;27;20381;-45
2021/06/12 00:05:24;;;;;;;8.77;6.18;;;19.60;99.90;;;;;;5131743;27;20102;-44
2021/06/12 00:07:49;;;;;;;10.30;6.38;;;19.60;99.90;;;;;;5131811;27;20234;-43
2021/06/12 00:10:37;;;;;;;7.68;6.68;;;19.60;99.90;;;;;;5130699;27;20206;-44
2021/06/12 00:13:03;;;;;;;5.80;5.20;;;19.60;99.90;;;;;;5047167;28;20045;-44
2021/06/12 00:15:30;;;;;;;8.15;6.70;;;19.50;99.90;;;;;;5047336;28;20506;-44
2021/06/12 00:17:55;;;;;;;7.07;6.18;;;19.50;99.90;;;;;;5090312;27;20399;-44
2021/06/12 00:20:27;;;;;;;8.32;6.47;;;19.50;99.90;;;;;;5130648;27;20019;-44
2021/06/12 00:22:53;;;;;;;7.05;6.32;;;19.50;99.90;;;;;;5132017;27;20119;-44
2021/06/12 00:25:26;;;;;;;8.73;6.25;;;19.40;99.90;;;;;;5130320;27;20667;-44
2021/06/12 00:27:54;;;;;;;7.53;6.25;;;19.40;99.90;;;;;;5131610;27;20422;-45
2021/06/12 00:30:21;;;;;;;8.05;6.55;;;19.30;99.90;;;;;;5130928;27;20031;-44
2021/06/12 00:32:46;;;;;;;7.18;5.80;;;19.30;99.90;;;;;;5120731;27;20017;-44
2021/06/12 00:35:13;;;;;;;6.30;5.70;;;19.30;99.90;;;;;;5129990;27;20029;-44
2021/06/12 00:37:39;;;;;;;5.88;5.35;;;19.30;99.90;;;;;;5129854;27;20024;-45
2021/06/12 00:40:07;;;;;;;6.80;6.00;;;19.40;99.90;;;;;;5130778;27;20019;-45
2021/06/12 00:42:32;;;;;;;7.18;6.18;;;19.40;99.90;;;;;;5131476;27;20023;-44
2021/06/12 00:44:58;;;;;;;7.20;6.43;;;19.40;99.90;;;;;;5131534;27;20538;-43
2021/06/12 00:47:23;;;;;;;10.18;6.43;;;19.40;99.90;;;;;;5131110;27;20019;-44
2021/06/12 00:49:49;;;;;;;6.20;5.60;;;19.40;99.90;;;;;;5130073;27;20030;-45
2021/06/12 00:52:15;;;;;;;6.97;6.20;;;19.40;99.90;;;;;;5130808;27;20023;-44
2021/06/12 00:54:40;;;;;;;5.90;5.32;;;19.30;99.90;;;;;;5130816;27;20366;-44
2021/06/12 00:57:06;;;;;;;6.43;5.82;;;19.30;99.90;;;;;;5112188;27;20720;-44
2021/06/12 00:59:32;;;;;;;7.00;6.20;;;19.30;99.90;;;;;;5128784;27;20108;-44
2021/06/12 01:01:58;;;;;;;8.82;6.35;;;19.30;99.90;;;;;;5125339;27;20096;-45
2021/06/12 01:04:24;;;;;;;7.93;6.88;;;19.30;99.90;;;;;;5122011;27;20050;-44
2021/06/12 01:06:50;;;;;;;7.88;6.20;;;19.20;99.90;;;;;;5129045;27;20488;-46
2021/06/12 01:09:21;;;;;;;7.47;6.65;;;19.20;99.90;;;;;;5129482;27;20030;-44
2021/06/12 01:11:54;;;;;;;;;;;19.20;99.90;;;;;;5130501;27;20035;-45
2021/06/12 01:14:24;;;;;;;7.35;6.43;;;19.20;99.90;;;;;;5130232;27;19903;-44
2021/06/12 01:16:52;;;;;;;;;;;19.20;99.90;;;;;;5129661;27;20059;-45
2021/06/12 01:19:39;;;;;;;7.13;6.43;;;19.20;99.90;;;;;;5130435;27;19909;-44
2021/06/12 01:22:21;;;;;;;8.23;6.88;;;19.20;99.90;;;;;;5130321;27;20024;-44
2021/06/12 01:25:17;;;;;;;8.88;7.43;;;19.10;99.90;;;;;;5130408;27;20054;-44
2021/06/12 01:27:54;;;;;;;8.10;6.70;;;19.10;99.90;;;;;;5095917;27;20392;-44
2021/06/12 01:30:24;;;;;;;7.15;6.00;;;19.10;99.90;;;;;;5129564;27;20078;-44
2021/06/12 01:32:57;;;;;;;7.90;6.60;;;19.00;99.90;;;;;;5118806;27;20023;-44
2021/06/12 01:35:34;;;;;;;7.68;6.80;;;19.00;99.90;;;;;;5088948;28;20024;-44
2021/06/12 01:38:02;;;;;;;9.30;6.72;;;19.00;99.90;;;;;;5089114;28;20465;-44
2021/06/12 01:40:33;;;;;;;8.25;7.28;;;18.90;99.90;;;;;;5088197;28;20032;-43
2021/06/12 01:43:00;;;;;;;8.50;7.25;;;18.90;99.90;;;;;;5089041;28;20084;-45
2021/06/12 01:45:26;;;;;;;8.13;7.07;;;19.00;99.90;;;;;;5088885;28;20020;-45
2021/06/12 01:47:53;;;;;;;7.47;6.78;;;18.90;99.90;;;;;;5088897;28;20035;-45
2021/06/12 01:50:22;;;;;;;7.13;6.43;;;18.90;99.90;;;;;;5088573;28;20391;-44
2021/06/12 01:52:48;;;;;;;8.85;6.93;;;18.90;99.90;;;;;;5087605;28;20067;-44
2021/06/12 01:55:17;;;;;;;8.15;7.35;;;18.90;99.90;;;;;;5088954;28;20111;-43
2021/06/12 01:57:44;;;;;;;8.30;7.47;;;18.90;99.90;;;;;;5088830;28;20085;-44
2021/06/12 02:00:11;;;;;;;8.63;6.95;;;18.90;99.90;;;;;;5088169;28;20020;-44
2021/06/12 02:02:41;;;;;;;9.07;8.23;;;18.90;99.90;;;;;;5109796;27;20020;-44
2021/06/12 02:05:11;;;;;;;8.50;7.40;;;18.80;99.90;;;;;;5127705;27;20043;-44
2021/06/12 02:07:38;;;;;;;7.93;7.13;;;18.90;99.90;;;;;;5129487;27;20274;-44
2021/06/12 02:10:06;;;;;;;10.23;7.78;;;18.80;99.90;;;;;;5128727;27;20414;-44
2021/06/12 02:12:34;;;;;;;7.78;7.13;;;18.80;99.90;;;;;;5128130;27;20054;-47
2021/06/12 02:15:01;;;;;;;8.50;7.70;;;18.80;99.90;;;;;;5129278;27;20033;-44
2021/06/12 02:17:30;;;;;;;8.05;7.35;;;18.80;99.90;;;;;;5129273;27;20019;-48
2021/06/12 02:19:56;;;;;;;8.73;7.70;;;18.80;99.90;;;;;;5128854;27;20383;-45
2021/06/12 02:22:22;;;;;;;11.05;7.88;;;18.90;99.90;;;;;;5128986;27;20059;-45
2021/06/12 02:24:48;;;;;;;10.38;8.02;;;18.90;99.90;;;;;;5128003;27;20084;-45
2021/06/12 02:27:18;;;;;;;12.70;8.55;;;18.90;99.90;;;;;;5129053;27;20104;-45
2021/06/12 02:29:43;;;;;;;12.63;10.50;;;18.80;99.90;;;;;;5128490;27;20235;-47
2021/06/12 02:32:11;;;;;;;9.77;8.70;;;18.80;99.90;;;;;;5113254;27;20178;-45
2021/06/12 02:34:37;;;;;;;12.73;10.27;;;18.70;99.90;;;;;;5101273;27;20070;-47
2021/06/12 02:37:07;;;;;;;9.75;8.70;;;18.70;99.90;;;;;;5098266;28;20022;-47
2021/06/12 02:39:33;;;;;;;13.98;9.80;;;18.70;99.90;;;;;;5095524;28;20312;-45
2021/06/12 02:42:00;;;;;;;11.70;9.45;;;18.70;99.90;;;;;;5099193;28;20361;-45
2021/06/12 02:44:26;;;;;;;11.93;9.38;;;18.70;99.90;;;;;;5097446;28;20019;-43
2021/06/12 02:46:57;;;;;;;12.43;11.07;;;18.70;99.90;;;;;;5096935;28;20055;-46
2021/06/12 02:49:26;;;;;;;11.98;10.77;;;18.60;99.90;;;;;;5096399;28;20420;-46
2021/06/12 02:51:59;;;;;;;10.25;9.25;;;18.60;99.90;;;;;;5095727;28;20051;-45
2021/06/12 02:54:26;;;;;;;14.23;11.05;;;18.60;99.90;;;;;;5097514;28;20413;-44
2021/06/12 02:56:55;;;;;;;12.50;11.18;;;18.50;99.90;;;;;;5096625;28;20051;-47
2021/06/12 02:59:22;;;;;;;11.88;10.68;;;18.50;99.90;;;;;;5096095;28;20477;-44
2021/06/12 03:01:49;;;;;;;12.77;10.00;;;18.50;99.90;;;;;;5101489;27;20016;-45
2021/06/12 03:04:16;;;;;;;11.57;10.38;;;18.50;99.90;;;;;;5104981;27;20682;-44
2021/06/12 03:06:45;;;;;;;15.23;11.93;;;18.50;99.90;;;;;;5096355;28;20019;-45
2021/06/12 03:09:21;;;;;;;12.23;10.50;;;18.50;99.90;;;;;;5096310;28;20023;-45
2021/06/12 03:11:51;;;;;;;13.38;12.05;;;18.50;99.90;;;;;;5097083;28;20031;-44
2021/06/12 03:14:17;;;;;;;15.48;11.48;;;18.50;99.90;;;;;;5096422;28;20422;-44
2021/06/12 03:16:45;;;;;;;14.43;12.15;;;18.40;99.90;;;;;;5097987;28;20012;-44
2021/06/12 03:19:13;;;;;;;13.40;11.70;;;18.40;99.90;;;;;;5097562;28;20147;-45
2021/06/12 03:21:39;;;;;;;12.18;10.88;;;18.40;99.90;;;;;;5095936;28;20109;-44
2021/06/12 03:24:06;;;;;;;15.75;11.07;;;18.40;99.90;;;;;;5104799;28;20369;-45
2021/06/12 03:26:33;;;;;;;11.95;10.75;;;18.30;99.90;;;;;;5107656;28;20068;-44
2021/06/12 03:29:00;;;;;;;13.93;12.52;;;18.40;99.90;;;;;;5107266;28;20028;-44
2021/06/12 03:31:28;;;;;;;13.60;12.20;;;18.30;99.90;;;;;;5109522;28;20098;-44
2021/06/12 03:33:53;;;;;;;11.90;10.65;;;18.40;99.90;;;;;;5119689;28;20426;-45
2021/06/12 03:36:20;;;;;;;12.63;11.32;;;18.40;99.90;;;;;;5127837;28;20023;-47
2021/06/12 03:38:46;;;;;;;19.50;12.63;;;18.40;99.90;;;;;;5128037;27;20033;-44
2021/06/12 03:41:12;;;;;;;13.00;11.68;;;18.40;99.90;;;;;;5127756;28;20023;-44
2021/06/12 03:43:39;;;;;;;13.10;11.07;;;18.40;99.90;;;;;;5128392;27;20106;-44
2021/06/12 03:46:05;;;;;;;14.30;11.18;;;18.40;99.90;;;;;;5128436;27;20031;-45
2021/06/12 03:48:31;;;;;;;14.18;10.80;;;18.40;99.90;;;;;;5127991;27;20130;-44
2021/06/12 03:50:58;;;;;;;20.13;12.27;;;18.40;99.90;;;;;;5127038;28;20499;-44
2021/06/12 03:53:30;;;;;;;18.05;12.40;;;18.40;99.90;;;;;;5128269;27;20500;-44
2021/06/12 03:55:58;;;;;;;15.18;11.55;;;18.40;99.90;;;;;;5127834;27;20035;-47
2021/06/12 03:58:23;;;;;;;21.08;10.73;;;18.40;99.90;;;;;;5127852;27;20425;-45
2021/06/12 04:00:49;;;;;;;16.80;11.57;;;18.40;99.90;;;;;;5125584;28;20019;-44
2021/06/12 04:03:15;;;;;;;15.80;11.65;;;18.50;99.90;;;;;;5117464;27;20020;-45
2021/06/12 04:05:40;;;;;;;14.63;11.73;;;18.50;99.90;;;;;;5126658;27;20062;-45
2021/06/12 04:08:06;;;;;;;16.55;11.63;;;18.50;99.90;;;;;;5127988;28;20039;-44
2021/06/12 04:10:31;;;;;;;11.93;10.55;;;18.50;99.90;;;;;;5126103;28;20039;-44
2021/06/12 04:12:57;;;;;;;12.75;10.85;;;18.60;99.90;;;;;;5128058;28;20038;-44
2021/06/12 04:15:23;;;;;;;16.75;10.82;;;18.60;99.90;;;;;;5127985;28;20483;-45
2021/06/12 04:17:57;;;;;;;13.57;11.77;;;18.60;99.90;;;;;;5127732;28;20023;-44
2021/06/12 04:20:23;;;;;;;14.32;11.65;;;18.60;99.90;;;;;;5126897;27;20023;-44
2021/06/12 04:22:48;;;;;;;13.77;11.52;;;18.60;99.90;;;;;;5127622;28;20022;-44
2021/06/12 04:25:14;;;;;;;14.73;11.23;;;18.70;99.90;;;;;;5127631;28;20031;-44
2021/06/12 04:27:39;;;;;;;16.95;12.18;;;18.70;99.90;;;;;;5127783;27;20046;-46
2021/06/12 04:30:05;;;;;;;13.70;11.35;;;18.60;99.90;;;;;;5126631;28;20442;-44
2021/06/12 04:32:31;;;;;;;14.57;11.77;;;18.60;99.90;;;;;;5118482;27;20473;-43
2021/06/12 04:34:56;;;;;;;11.82;10.63;;;18.60;99.90;;;;;;5104669;28;20086;-44
2021/06/12 04:37:22;;;;;;;14.20;10.88;;;18.60;99.90;;;;;;5095206;28;20055;-44
2021/06/12 04:39:47;;;;;;;11.45;9.75;;;18.70;99.90;;;;;;5106572;28;20016;-44
2021/06/12 04:42:13;;;;;;;17.13;11.35;;;18.70;99.90;;;;;;5109547;28;20023;-44
2021/06/12 04:44:39;;;;;;;11.43;10.23;;;18.80;99.90;;;;;;5110980;28;20058;-43
2021/06/12 04:47:04;;;;;;;13.65;10.38;;;18.80;99.90;;;;;;5110970;28;20031;-44
2021/06/12 04:49:30;;;;;;;17.60;12.63;;;18.90;99.90;;;;;;5110040;28;20063;-44
2021/06/12 04:51:55;;;;;;;14.05;11.10;;;18.90;99.90;;;;;;5110326;28;20043;-43
2021/06/12 04:54:21;;;;;;;15.25;12.98;;;19.00;99.90;;;;;;5110573;28;20034;-45
2021/06/12 04:56:46;;;;;;;19.75;12.48;;;19.00;99.90;;;;;;5105876;28;20080;-44
2021/06/12 04:59:11;;;;;;;15.05;12.35;;;19.10;99.90;;;;;;5097939;28;20439;-44
2021/06/12 05:01:37;;;;;;;13.23;10.50;;;19.10;99.90;;;;;;5101433;27;20029;-44
2021/06/12 05:04:03;;;;;;;16.23;12.80;;;19.20;99.90;;;;;;5105907;27;20429;-46
2021/06/12 05:06:28;;;;;;;16.55;12.40;;;19.30;99.90;;;;;;5102784;27;20019;-45
2021/06/12 05:08:54;;;;;;;11.80;10.57;;;19.40;99.90;;;;;;5109451;28;20027;-44
2021/06/12 05:11:19;;;;;;;19.58;13.32;;;19.40;99.90;;;;;;5109500;28;20036;-45
2021/06/12 05:13:45;;;;;;;18.98;14.68;;;19.50;99.90;;;;;;5101973;28;20031;-43
2021/06/12 05:16:11;;;;;;;17.80;12.85;;;19.50;99.90;;;;;;5098261;28;20119;-44
2021/06/12 05:18:44;;;;;;;18.63;12.27;;;19.50;99.90;;;;;;5093940;28;20387;-43
2021/06/12 05:21:14;;;;;;;17.58;13.48;;;19.60;99.90;;;;;;5102127;28;20030;-44
2021/06/12 05:23:39;;;;;;;17.17;13.70;;;19.60;99.90;;;;;;5109060;28;20099;-43
2021/06/12 05:26:07;;;;;;;16.55;13.05;;;19.60;99.90;;;;;;5117007;27;20127;-43
2021/06/12 05:28:32;;;;;;;19.77;15.40;;;19.60;99.90;;;;;;5125639;27;20030;-43
2021/06/12 05:30:58;;;;;;;19.92;14.57;;;19.80;99.90;;;;;;5129187;27;20411;-44
2021/06/12 05:33:24;;;;;;;29.83;13.98;;;19.80;99.90;;;;;;5124801;27;20023;-45
2021/06/12 05:35:50;;;;;;;19.55;15.35;;;19.80;99.90;;;;;;5094636;27;20085;-46
2021/06/12 05:38:17;;;;;;;19.23;14.30;;;19.80;99.90;;;;;;5107981;27;20038;-44
2021/06/12 05:40:43;;;;;;;22.48;14.68;;;19.80;99.90;;;;;;5114231;27;20102;-45
2021/06/12 05:43:09;;;;;;;23.08;15.18;;;19.70;99.90;;;;;;5109223;28;20500;-45
2021/06/12 05:45:34;;;;;;;19.30;15.48;;;19.80;99.90;;;;;;5108993;28;20118;-43
2021/06/12 05:48:00;;;;;;;22.95;15.00;;;19.90;99.90;;;;;;5108468;28;20084;-45
2021/06/12 05:50:26;;;;;;;23.23;15.63;;;19.80;99.90;;;;;;5108561;27;20081;-44
2021/06/12 05:52:51;;;;;;;20.38;16.02;;;19.80;99.90;;;;;;5108628;28;20480;-44
2021/06/12 05:55:17;;;;;;;18.15;14.25;;;19.70;99.90;;;;;;5108767;28;20030;-44
2021/06/12 05:57:43;;;;;;;28.92;16.67;;;19.80;99.90;;;;;;5108930;28;20027;-43
2021/06/12 06:00:10;;;;;;;26.98;16.42;;;19.90;99.90;;;;;;5108196;28;20023;-44
2021/06/12 06:02:35;;;;;;;25.55;17.42;;;19.90;99.90;;;;;;5114306;27;20330;-44
2021/06/12 06:05:01;;;;;;;22.92;15.05;;;19.90;99.90;;;;;;5120974;27;20035;-45
2021/06/12 06:07:26;;;;;;;23.35;14.80;;;19.90;99.90;;;;;;5129063;27;20015;-44
2021/06/12 06:09:52;;;;;;;26.80;17.02;;;20.00;99.90;;;;;;5128609;27;20061;-44
2021/06/12 06:12:18;;;;;;;19.50;14.35;;;20.10;99.90;;;;;;5127818;27;20496;-44
2021/06/12 06:14:43;;;;;;;21.98;15.93;;;20.10;99.90;;;;;;5129117;27;20031;-47
2021/06/12 06:17:08;;;;;;;24.85;16.67;;;20.20;99.90;;;;;;5128718;27;20130;-44
2021/06/12 06:19:34;;;;;;;27.48;17.17;;;20.20;99.90;;;;;;5128401;27;20034;-44
2021/06/12 06:21:59;;;;;;;22.35;16.27;;;20.20;99.90;;;;;;5111320;27;20485;-45
2021/06/12 06:24:25;;;;;;;23.88;17.55;;;20.00;99.90;;;;;;5116187;27;20030;-43
2021/06/12 06:26:50;;;;;;;27.00;17.90;;;20.00;99.90;;;;;;5108074;28;20023;-44
2021/06/12 06:29:16;;;;;;;25.10;16.65;;;20.00;99.90;;;;;;5105928;28;20042;-44
2021/06/12 06:31:44;;;;;;;26.85;18.60;;;20.00;99.90;;;;;;5108090;28;20476;-44
2021/06/12 06:34:09;;;;;;;23.55;16.88;;;20.00;99.90;;;;;;5117606;27;20118;-44
2021/06/12 06:36:35;;;;;;;24.58;18.20;;;20.00;99.90;;;;;;5114645;27;20505;-44
2021/06/12 06:39:00;;;;;;;29.35;19.08;;;20.00;99.90;;;;;;5100564;28;20093;-43
2021/06/12 06:41:26;;;;;;;28.60;17.48;;;20.00;99.90;;;;;;5096554;28;20015;-43
2021/06/12 06:43:51;;;;;;;24.33;17.80;;;20.00;99.90;;;;;;5097815;28;20469;-44
2021/06/12 06:46:17;;;;;;;26.77;17.40;;;20.10;99.90;;;;;;5092250;28;20058;-43
2021/06/12 06:48:42;;;;;;;23.52;16.38;;;20.10;99.90;;;;;;5093694;28;20426;-44
2021/06/12 06:51:08;;;;;;;24.55;17.63;;;20.00;99.90;;;;;;5094124;28;20084;-44
2021/06/12 06:53:33;;;;;;;29.80;18.15;;;20.00;99.90;;;;;;5104553;28;20035;-44
2021/06/12 06:56:00;;;;;;;26.35;17.33;;;19.90;99.90;;;;;;5102268;28;20046;-44
2021/06/12 06:58:27;;;;;;;25.00;17.90;;;20.00;99.90;;;;;;5105925;28;20488;-45
2021/06/12 07:00:52;;;;;;;30.13;18.45;;;19.90;99.90;;;;;;5086914;28;20020;-45
2021/06/12 07:03:18;;;;;;;24.80;17.00;;;19.80;99.90;;;;;;5103478;27;20011;-44
2021/06/12 07:05:43;;;;;;;27.50;18.35;;;19.70;99.90;;;;;;5110410;27;20031;-44
2021/06/12 07:08:09;;;;;;;25.75;18.52;;;19.70;99.90;;;;;;5087334;28;20103;-44
2021/06/12 07:10:34;;;;;;;30.73;18.23;;;19.60;99.90;;;;;;5086796;28;20047;-44
2021/06/12 07:13:01;;;;;;;25.75;17.20;;;19.70;99.90;;;;;;5087499;28;20099;-44
2021/06/12 07:15:27;;;;;;;26.20;18.25;;;19.80;99.90;;;;;;5098104;28;20114;-43
2021/06/12 07:17:53;;;;;;;27.88;17.35;;;19.80;99.90;;;;;;5096707;28;20091;-44
2021/06/12 07:20:19;;;;;;;24.02;15.57;;;20.00;99.90;;;;;;5086754;28;20103;-44
2021/06/12 07:22:44;;;;;;;22.70;15.40;;;20.20;99.90;;;;;;5087221;28;20131;-45
2021/06/12 07:25:10;;;;;;;25.50;18.33;;;20.30;99.90;;;;;;5087292;28;20017;-44
2021/06/12 07:27:36;;;;;;;27.25;18.08;;;20.20;99.90;;;;;;5086591;28;20100;-45
2021/06/12 07:30:03;;;;;;;25.85;18.50;;;20.30;99.90;;;;;;5086083;28;20077;-44
2021/06/12 07:32:29;;;;;;;25.20;17.60;;;20.50;99.90;;;;;;5096490;28;20366;-44
2021/06/12 07:34:55;;;;;;;25.45;17.00;;;20.50;99.90;;;;;;5104647;28;20032;-44
2021/06/12 07:37:20;;;;;;;28.90;17.23;;;20.50;99.90;;;;;;5093013;28;20082;-43
2021/06/12 07:39:46;;;;;;;25.35;17.08;;;20.60;99.90;;;;;;5086611;28;20095;-47
2021/06/12 07:42:11;;;;;;;23.40;15.70;;;20.40;99.90;;;;;;5093835;28;20020;-45
2021/06/12 07:44:37;;;;;;;23.05;16.90;;;20.40;99.90;;;;;;5101985;28;20024;-45
2021/06/12 07:47:03;;;;;;;28.65;16.55;;;20.30;99.90;;;;;;5087156;28;20028;-44
2021/06/12 07:49:28;;;;;;;25.17;16.05;;;20.20;99.90;;;;;;5086804;28;20028;-44
2021/06/12 07:51:54;;;;;;;21.38;15.82;;;20.30;99.90;;;;;;5086966;28;20028;-45
2021/06/12 07:54:20;;;;;;;27.45;16.77;;;20.30;99.90;;;;;;5087647;28;20055;-44
2021/06/12 07:56:46;;;;;;;23.05;15.55;;;20.20;99.90;;;;;;5087285;28;20387;-45
2021/06/12 07:59:11;;;;;;;23.67;15.73;;;20.30;99.90;;;;;;5087038;28;20020;-44
2021/06/12 08:01:37;;;;;;;31.27;22.20;;;20.30;99.90;;;;;;5086772;28;20523;-44
2021/06/12 08:04:02;;;;;;;25.15;16.95;;;20.50;99.90;;;;;;5105376;28;20022;-44
2021/06/12 08:06:29;;;;;;;19.58;14.75;;;20.80;99.90;;;;;;5120033;27;20034;-44
2021/06/12 08:08:54;;;;;;;20.83;15.38;;;21.00;99.90;;;;;;5128150;27;20026;-44
2021/06/12 08:11:20;;;;;;;24.23;14.68;;;21.20;99.90;;;;;;5127246;28;20035;-45
2021/06/12 08:13:45;;;;;;;19.35;14.27;;;21.30;99.90;;;;;;5127717;28;20110;-45
2021/06/12 08:16:11;;;;;;;21.88;14.95;;;21.30;99.90;;;;;;5129859;27;20396;-45
2021/06/12 08:18:37;;;;;;;25.40;16.45;;;21.30;99.90;;;;;;5131613;27;20055;-44
2021/06/12 08:21:03;;;;;;;21.85;15.40;;;21.10;99.90;;;;;;5131006;27;20023;-44
2021/06/12 08:23:28;;;;;;;17.63;13.75;;;21.10;99.90;;;;;;5131924;27;20042;-44
2021/06/12 08:25:54;;;;;;;24.02;13.93;;;21.30;99.90;;;;;;5131701;27;20027;-44
2021/06/12 08:28:19;;;;;;;18.25;12.68;;;21.40;99.90;;;;;;5132002;27;20023;-44
2021/06/12 08:30:45;;;;;;;17.65;12.80;;;21.50;99.90;;;;;;5130814;27;20038;-44
2021/06/12 08:33:11;;;;;;;17.80;12.60;;;21.60;99.90;;;;;;5116459;27;20503;-45
2021/06/12 08:35:38;;;;;;;21.42;14.63;;;21.60;99.90;;;;;;5122874;27;20035;-44
2021/06/12 08:38:03;;;;;;;20.30;13.45;;;21.50;99.90;;;;;;5129735;27;20027;-45
2021/06/12 08:40:30;;;;;;;17.73;13.23;;;21.60;99.90;;;;;;5130829;27;20072;-45
2021/06/12 08:42:55;;;;;;;15.27;11.02;;;21.50;99.90;;;;;;5130243;27;20016;-44
2021/06/12 08:45:25;;;;;;;16.92;12.32;;;21.50;99.90;;;;;;5131254;27;20091;-44
2021/06/12 08:47:52;;;;;;;19.35;13.20;;;21.60;99.90;;;;;;5131262;27;20015;-44
2021/06/12 08:50:19;;;;;;;18.48;12.27;;;21.50;99.90;;;;;;5129148;27;20020;-45
2021/06/12 08:52:45;;;;;;;18.60;12.27;;;21.80;99.90;;;;;;5130927;27;20110;-45
2021/06/12 08:55:11;;;;;;;16.80;12.05;;;22.00;99.90;;;;;;5131097;27;20123;-44
2021/06/12 08:57:38;;;;;;;19.27;12.25;;;22.10;99.90;;;;;;5129968;27;20023;-45
2021/06/12 09:00:05;;;;;;;21.35;13.48;;;22.30;99.90;;;;;;5130181;27;20022;-45
2021/06/12 09:03:09;;;;;;;19.15;12.63;;;22.30;99.90;;;;;;5123176;27;20403;-44
2021/06/12 09:05:49;;;;;;;14.20;10.27;;;22.30;99.90;;;;;;5112281;27;20012;-44
2021/06/12 09:08:17;;;;;;;15.27;10.50;;;22.40;99.90;;;;;;5108779;28;20038;-44
2021/06/12 09:10:58;;;;;;;12.13;9.27;;;22.60;99.90;;;;;;5109787;28;20032;-44
2021/06/12 09:13:49;;;;;;;13.07;9.23;;;23.10;99.90;;;;;;5110581;28;20023;-45
2021/06/12 09:16:36;;;;;;;11.65;8.90;;;23.50;99.90;;;;;;5110406;28;20024;-46
2021/06/12 09:19:09;;;;;;;13.73;9.27;;;24.30;99.90;;;;;;5110062;28;20535;-45
2021/06/12 09:21:42;;;;;;;13.07;8.00;;;25.00;99.90;;;;;;5109506;28;20038;-44
2021/06/12 09:24:29;;;;;;;12.65;8.05;;;25.60;99.50;;;;;;5110207;28;20022;-45
2021/06/12 09:27:02;;;;;;;13.63;8.25;;;26.10;97.90;;;;;;5109367;28;20031;-44
2021/06/12 09:29:43;;;;;;;8.38;6.72;;;26.90;96.60;;;;;;5108029;28;20024;-45
2021/06/12 09:32:13;;;;;;;8.65;7.10;;;27.50;94.90;;;;;;5109251;28;20059;-44
2021/06/12 09:34:39;;;;;;;10.07;7.28;;;27.60;92.00;;;;;;5112201;27;20529;-45
2021/06/12 09:37:17;;;;;;;8.93;6.60;;;26.90;91.40;;;;;;5127544;27;20054;-45
2021/06/12 09:39:55;;;;;;;12.85;7.28;;;26.10;92.70;;;;;;5128444;27;20019;-44
2021/06/12 09:42:35;;;;;;;9.38;7.40;;;25.80;94.30;;;;;;5130565;27;20019;-45
2021/06/12 09:45:05;;;;;;;9.82;6.53;;;25.40;94.80;;;;;;5130521;27;20038;-44
2021/06/12 09:47:30;;;;;;;12.27;6.50;;;24.90;95.90;;;;;;5130112;27;20023;-45
2021/06/12 09:50:02;;;;;;;13.27;7.20;;;24.50;95.50;;;;;;5129424;27;20023;-44
2021/06/12 09:52:28;;;;;;;8.02;6.47;;;23.50;97.50;;;;;;5129880;27;20479;-45
2021/06/12 09:54:53;;;;;;;9.90;7.55;;;23.00;99.10;;;;;;5130329;27;20077;-44
2021/06/12 09:57:22;;;;;;;9.38;7.57;;;22.50;99.90;;;;;;5129816;27;20106;-45
2021/06/12 09:59:50;;;;;;;8.30;6.60;;;22.30;99.90;;;;;;5129244;27;20131;-44
2021/06/12 10:02:38;;;;;;;9.35;7.40;;;21.90;99.90;;;;;;5125212;27;20457;-45
2021/06/12 10:05:06;;;;;;;12.40;8.27;;;21.60;99.90;;;;;;5115252;27;20438;-45
2021/06/12 10:07:31;;;;;;;13.70;8.35;;;21.30;99.90;;;;;;5129626;27;20047;-44
2021/06/12 10:10:04;;;;;;;12.30;7.10;;;21.10;99.90;;;;;;5127672;27;20111;-44
2021/06/12 10:12:30;;;;;;;15.57;9.43;;;21.00;99.90;;;;;;5129831;27;20260;-45
2021/06/12 10:14:57;;;;;;;12.80;10.15;;;20.80;99.90;;;;;;5128356;27;20031;-43
2021/06/12 10:17:23;;;;;;;18.25;9.65;;;20.40;99.90;;;;;;5129561;27;20112;-44
2021/06/12 10:19:55;;;;;;;14.18;7.95;;;20.00;99.90;;;;;;5127660;27;20469;-45
2021/06/12 10:22:21;;;;;;;14.80;8.82;;;19.50;99.90;;;;;;5129141;27;20025;-44
2021/06/12 10:24:48;;;;;;;13.32;8.68;;;19.10;99.90;;;;;;5129519;27;20099;-45
2021/06/12 10:27:14;;;;;;;11.75;8.23;;;18.80;99.90;;;;;;5129131;27;20026;-44
2021/06/12 10:29:42;;;;;;;16.48;9.25;;;18.60;99.90;;;;;;5128532;27;20039;-44
2021/06/12 10:32:09;;;;;;;12.02;9.20;;;18.50;99.90;;;;;;5127684;27;20058;-44
2021/06/12 10:34:35;;;;;;;12.95;9.82;;;18.40;99.90;;;;;;5110322;27;20023;-45
2021/06/12 10:37:04;;;;;;;13.43;10.52;;;18.30;99.90;;;;;;5126130;27;20046;-45
2021/06/12 10:39:33;;;;;;;13.60;10.25;;;18.30;99.90;;;;;;5127513;27;20070;-45
2021/06/12 10:42:25;;;;;;;12.45;9.75;;;18.30;99.90;;;;;;5129047;27;20023;-45
2021/06/12 10:44:53;;;;;;;15.20;10.57;;;18.30;99.90;;;;;;5128927;27;20015;-44
2021/06/12 10:47:49;;;;;;;12.48;10.40;;;18.30;99.90;;;;;;5129267;27;20034;-45
2021/06/12 10:50:26;;;;;;;15.18;11.27;;;18.30;99.90;;;;;;5128163;27;20023;-44
2021/06/12 10:53:14;;;;;;;15.43;12.77;;;18.30;99.90;;;;;;5128735;27;20491;-44
2021/06/12 10:55:45;;;;;;;19.88;14.55;;;18.40;99.90;;;;;;5128722;27;20059;-45
2021/06/12 10:58:29;;;;;;;21.83;14.52;;;18.50;99.90;;;;;;5128762;27;20202;-44
2021/06/12 11:01:07;;;;;;;18.95;13.18;;;18.80;99.90;;;;;;5126651;27;20388;-45
2021/06/12 11:09:20;;;;;;;18.77;14.95;;;19.90;99.90;;;;;;5127966;27;20030;-45
2021/06/12 11:11:50;;;;;;;16.80;14.02;;;19.90;99.90;;;;;;5128460;27;20027;-44
2021/06/12 11:14:21;;;;;;;18.33;15.07;;;20.20;99.90;;;;;;5128506;27;20030;-45
2021/06/12 11:17:05;;;;;;;17.48;14.25;;;20.80;99.90;;;;;;5128401;27;20058;-44
2021/06/12 11:19:48;;;;;;;17.70;13.95;;;21.50;99.90;;;;;;5127943;27;20017;-45
2021/06/12 11:22:35;;;;;;;15.27;11.93;;;21.90;99.90;;;;;;5128282;27;20025;-45
2021/06/12 11:25:10;;;;;;;14.98;13.02;;;23.50;99.90;;;;;;5128489;27;20019;-44
2021/06/12 11:27:39;;;;;;;14.70;11.15;;;24.90;99.90;;;;;;5128332;27;20479;-44
2021/06/12 11:30:18;;;;;;;13.77;12.02;;;26.00;99.90;;;;;;5127973;27;20027;-44
2021/06/12 11:32:52;;;;;;;11.88;8.40;;;27.00;99.90;;;;;;5117053;28;20312;-45
2021/06/12 11:35:40;;;;;;;12.27;8.82;;;27.70;99.90;;;;;;5118423;28;20023;-45
2021/06/12 11:38:09;;;;;;;11.52;9.90;;;28.00;97.70;;;;;;5128487;27;20023;-45
2021/06/12 11:40:35;;;;;;;10.38;9.27;;;27.90;94.40;;;;;;5127679;28;20023;-44
2021/06/12 11:43:01;;;;;;;12.32;9.52;;;26.70;96.20;;;;;;5126542;28;20411;-44
2021/06/12 11:45:30;;;;;;;10.13;7.28;;;25.80;95.40;;;;;;5128168;27;20065;-44
2021/06/12 11:47:56;;;;;;;9.45;6.90;;;24.70;95.20;;;;;;5127022;28;20476;-44
2021/06/12 11:50:32;;;;;;;8.93;6.93;;;23.50;96.70;;;;;;5128644;27;20034;-45
2021/06/12 11:52:58;;;;;;;10.27;6.43;;;22.80;99.30;;;;;;5132425;27;20019;-44
2021/06/12 11:55:27;;;;;;;14.82;6.65;;;22.20;99.90;;;;;;5132409;27;20080;-44
2021/06/12 11:57:54;;;;;;;6.88;4.85;;;22.00;99.90;;;;;;5132355;27;20369;-45
2021/06/12 12:00:30;;;;;;;11.68;6.30;;;22.30;99.90;;;;;;5130268;27;20525;-45
2021/06/12 12:03:01;;;;;;;5.65;4.82;;;22.90;99.10;;;;;;5117243;27;20209;-45
2021/06/12 12:05:31;;;;;;;6.72;4.65;;;23.80;99.80;;;;;;5110569;27;20497;-45
2021/06/12 12:07:57;;;;;;;8.50;4.57;;;24.70;96.90;;;;;;5111309;28;20445;-45
2021/06/12 12:10:27;;;;;;;7.35;4.38;;;25.00;93.60;;;;;;5110908;28;20081;-45
2021/06/12 12:12:53;;;;;;;;;;;25.40;93.30;;;;;;5112161;28;20047;-44
2021/06/12 12:15:37;;;;;;;9.98;4.90;;;25.40;92.10;;;;;;5110353;28;20376;-45
2021/06/12 12:18:09;;;;;;;6.93;4.72;;;24.80;92.00;;;;;;5111628;28;20023;-44
2021/06/12 12:20:47;;;;;;;5.65;3.65;;;24.70;90.90;;;;;;5110851;28;20023;-45
2021/06/12 12:23:25;;;;;;;7.18;3.58;;;24.90;90.30;;;;;;5110282;28;20024;-45
2021/06/12 12:26:03;;;;;;;6.05;4.00;;;24.90;90.20;;;;;;5111273;28;20362;-44
2021/06/12 12:28:29;;;;;;;10.02;3.92;;;25.10;90.60;;;;;;5110134;28;20023;-44
2021/06/12 12:31:06;;;;;;;6.18;3.70;;;25.10;90.10;;;;;;5109723;28;20019;-44
2021/06/12 12:33:44;;;;;;;5.60;3.55;;;24.80;86.70;;;;;;5109210;27;20027;-51
2021/06/12 12:36:10;;;;;;;6.45;3.97;;;24.20;87.50;;;;;;5123105;27;20476;-46
2021/06/12 12:38:35;;;;;;;4.68;3.30;;;24.30;86.60;;;;;;5131232;27;20103;-45
2021/06/12 12:41:05;;;;;;;5.93;3.97;;;24.50;89.50;;;;;;5130737;27;20029;-44
2021/06/12 12:43:32;;;;;;;4.00;2.92;;;24.90;89.30;;;;;;5131389;27;20286;-45
2021/06/12 12:45:58;;;;;;;5.50;3.45;;;25.20;88.10;;;;;;5131178;27;20027;-44
2021/06/12 12:48:24;;;;;;;3.88;2.97;;;25.30;82.30;;;;;;5131271;27;20025;-45